sensor_id;sensor_type;location;lat;lon;timestamp;temperature;humidity
5276;DHT22;2661;50.786;12.728;2023-04-29T00:00:02;9.10;99.90
5276;DHT22;2661;50.786;12.728;2023-04-29T00:02:32;9.10;1.00
5276;DHT22;2661;50.786;12.728;2023-04-29T00:04:59;9.10;1.00
5276;DHT22;2661;50.786;12.728;2023-04-29T00:07:26;9.10;99.90
5276;DHT22;2661;50.786;12.728;2023-04-29T00:09:53;9.20;99.90
5276;DHT22;2661;50.786;12.728;2023-04-29T00:12:20;9.10;99.90
5276;DHT22;2661;50.786;12.728;2023-04-29T00:14:46;9.10;1.00
5276;DHT22;2661;50.786;12.728;2023-04-29T00:17:13;9.20;1.00
5276;DHT22;2661;50.786;12.728;2023-04-29T00:19:41;9.20;1.00
5276;DHT22;2661;50.786;12.728;2023-04-29T00:22:08;9.20;1.00
5276;DHT22;2661;50.786;12.728;2023-04-29T00:24:35;9.30;1.00
5276;DHT22;2661;50.786;12.728;2023-04-29T00:27:01;9.30;1.00
5276;DHT22;2661;50.786;12.728;2023-04-29T00:29:28;9.30;1.00
5276;DHT22;2661;50.786;12.728;2023-04-29T00:31:55;9.40;1.00
5276;DHT22;2661;50.786;12.728;2023-04-29T00:34:21;9.40;1.00
5276;DHT22;2661;50.786;12.728;2023-04-29T00:36:48;9.40;1.00
5276;DHT22;2661;50.786;12.728;2023-04-29T00:39:14;9.50;1.00
5276;DHT22;2661;50.786;12.728;2023-04-29T00:41:41;9.60;1.00
5276;DHT22;2661;50.786;12.728;2023-04-29T00:44:08;9.60;1.00
5276;DHT22;2661;50.786;12.728;2023-04-29T00:46:35;9.70;1.00
5276;DHT22;2661;50.786;12.728;2023-04-29T00:49:02;9.80;1.00
5276;DHT22;2661;50.786;12.728;2023-04-29T00:51:29;9.80;1.00
5276;DHT22;2661;50.786;12.728;2023-04-29T00:53:55;9.90;1.00
5276;DHT22;2661;50.786;12.728;2023-04-29T00:56:22;9.90;1.00
5276;DHT22;2661;50.786;12.728;2023-04-29T00:58:48;9.90;1.00
5276;DHT22;2661;50.786;12.728;2023-04-29T01:01:17;9.90;1.00
5276;DHT22;2661;50.786;12.728;2023-04-29T01:03:44;10.00;1.00
5276;DHT22;2661;50.786;12.728;2023-04-29T01:08:43;10.00;1.00
5276;DHT22;2661;50.786;12.728;2023-04-29T01:11:11;10.00;1.00
5276;DHT22;2661;50.786;12.728;2023-04-29T01:13:45;10.00;1.00
5276;DHT22;2661;50.786;12.728;2023-04-29T01:16:20;9.90;1.00
5276;DHT22;2661;50.786;12.728;2023-04-29T01:18:48;9.90;1.00
5276;DHT22;2661;50.786;12.728;2023-04-29T01:21:16;9.90;1.00
5276;DHT22;2661;50.786;12.728;2023-04-29T01:23:43;10.00;1.00
5276;DHT22;2661;50.786;12.728;2023-04-29T01:26:11;9.90;1.00
5276;DHT22;2661;50.786;12.728;2023-04-29T01:33:33;9.90;1.70
5276;DHT22;2661;50.786;12.728;2023-04-29T01:43:57;10.10;24.30
5276;DHT22;2661;50.786;12.728;2023-04-29T01:46:24;10.10;25.90
5276;DHT22;2661;50.786;12.728;2023-04-29T01:48:53;10.10;26.70
5276;DHT22;2661;50.786;12.728;2023-04-29T01:51:21;10.20;27.30
5276;DHT22;2661;50.786;12.728;2023-04-29T01:53:48;10.20;28.30
5276;DHT22;2661;50.786;12.728;2023-04-29T01:56:14;10.10;29.10
5276;DHT22;2661;50.786;12.728;2023-04-29T01:58:41;10.20;29.60
5276;DHT22;2661;50.786;12.728;2023-04-29T02:01:07;10.20;30.00
5276;DHT22;2661;50.786;12.728;2023-04-29T02:03:36;10.20;30.20
5276;DHT22;2661;50.786;12.728;2023-04-29T02:06:03;10.30;30.80
5276;DHT22;2661;50.786;12.728;2023-04-29T02:08:29;10.30;32.20
5276;DHT22;2661;50.786;12.728;2023-04-29T02:10:56;10.30;32.90
5276;DHT22;2661;50.786;12.728;2023-04-29T02:13:23;10.40;33.30
5276;DHT22;2661;50.786;12.728;2023-04-29T02:15:50;10.40;33.70
5276;DHT22;2661;50.786;12.728;2023-04-29T02:18:16;10.40;34.30
5276;DHT22;2661;50.786;12.728;2023-04-29T02:20:43;10.50;34.10
5276;DHT22;2661;50.786;12.728;2023-04-29T02:23:09;10.40;32.50
5276;DHT22;2661;50.786;12.728;2023-04-29T02:25:36;10.40;30.40
5276;DHT22;2661;50.786;12.728;2023-04-29T02:28:02;10.40;29.80
5276;DHT22;2661;50.786;12.728;2023-04-29T02:30:29;10.50;28.70
5276;DHT22;2661;50.786;12.728;2023-04-29T02:32:56;10.40;27.10
5276;DHT22;2661;50.786;12.728;2023-04-29T02:35:23;10.40;27.10
5276;DHT22;2661;50.786;12.728;2023-04-29T02:37:49;10.40;27.20
5276;DHT22;2661;50.786;12.728;2023-04-29T02:40:16;10.40;28.00
5276;DHT22;2661;50.786;12.728;2023-04-29T02:42:42;10.40;29.10
5276;DHT22;2661;50.786;12.728;2023-04-29T02:45:09;10.50;29.80
5276;DHT22;2661;50.786;12.728;2023-04-29T02:47:36;10.50;29.20
5276;DHT22;2661;50.786;12.728;2023-04-29T02:50:03;10.60;28.50
5276;DHT22;2661;50.786;12.728;2023-04-29T02:52:30;10.60;26.10
5276;DHT22;2661;50.786;12.728;2023-04-29T02:54:57;10.60;23.50
5276;DHT22;2661;50.786;12.728;2023-04-29T02:57:23;10.60;18.70
5276;DHT22;2661;50.786;12.728;2023-04-29T02:59:50;10.60;13.40
5276;DHT22;2661;50.786;12.728;2023-04-29T03:02:17;10.70;9.80
5276;DHT22;2661;50.786;12.728;2023-04-29T03:04:43;10.70;3.00
5276;DHT22;2661;50.786;12.728;2023-04-29T03:07:11;10.80;1.00
5276;DHT22;2661;50.786;12.728;2023-04-29T03:09:37;10.80;1.00
5276;DHT22;2661;50.786;12.728;2023-04-29T03:12:04;10.70;1.00
5276;DHT22;2661;50.786;12.728;2023-04-29T03:14:31;10.60;1.00
5276;DHT22;2661;50.786;12.728;2023-04-29T03:16:58;10.60;1.00
5276;DHT22;2661;50.786;12.728;2023-04-29T03:19:24;10.50;1.00
5276;DHT22;2661;50.786;12.728;2023-04-29T03:21:51;10.40;1.00
5276;DHT22;2661;50.786;12.728;2023-04-29T03:24:19;10.40;1.00
5276;DHT22;2661;50.786;12.728;2023-04-29T03:26:46;10.40;1.00
5276;DHT22;2661;50.786;12.728;2023-04-29T03:29:12;10.40;2.00
5276;DHT22;2661;50.786;12.728;2023-04-29T03:31:39;10.40;5.90
5276;DHT22;2661;50.786;12.728;2023-04-29T03:34:05;10.40;8.20
5276;DHT22;2661;50.786;12.728;2023-04-29T03:36:32;10.40;10.60
5276;DHT22;2661;50.786;12.728;2023-04-29T03:38:59;10.40;11.30
5276;DHT22;2661;50.786;12.728;2023-04-29T03:41:25;10.40;12.00
5276;DHT22;2661;50.786;12.728;2023-04-29T03:43:52;10.50;13.80
5276;DHT22;2661;50.786;12.728;2023-04-29T03:46:20;10.40;9.60
5276;DHT22;2661;50.786;12.728;2023-04-29T03:48:46;10.50;7.80
5276;DHT22;2661;50.786;12.728;2023-04-29T03:51:13;10.40;6.20
5276;DHT22;2661;50.786;12.728;2023-04-29T03:53:40;10.50;6.10
5276;DHT22;2661;50.786;12.728;2023-04-29T03:56:06;10.40;6.00
5276;DHT22;2661;50.786;12.728;2023-04-29T03:58:33;10.40;6.50
5276;DHT22;2661;50.786;12.728;2023-04-29T04:00:59;10.40;8.40
5276;DHT22;2661;50.786;12.728;2023-04-29T04:03:26;10.40;9.70
5276;DHT22;2661;50.786;12.728;2023-04-29T04:05:53;10.40;13.60
5276;DHT22;2661;50.786;12.728;2023-04-29T04:08:20;10.40;15.20
5276;DHT22;2661;50.786;12.728;2023-04-29T04:10:46;10.40;14.40
5276;DHT22;2661;50.786;12.728;2023-04-29T04:13:13;10.40;16.20
5276;DHT22;2661;50.786;12.728;2023-04-29T04:15:39;10.40;16.90
5276;DHT22;2661;50.786;12.728;2023-04-29T04:18:07;10.40;17.80
5276;DHT22;2661;50.786;12.728;2023-04-29T04:20:35;10.30;18.40
5276;DHT22;2661;50.786;12.728;2023-04-29T04:23:02;10.40;17.90
5276;DHT22;2661;50.786;12.728;2023-04-29T04:25:28;10.30;18.20
5276;DHT22;2661;50.786;12.728;2023-04-29T04:27:55;10.40;20.50
5276;DHT22;2661;50.786;12.728;2023-04-29T04:30:22;10.40;23.90
5276;DHT22;2661;50.786;12.728;2023-04-29T04:32:48;10.40;23.90
5276;DHT22;2661;50.786;12.728;2023-04-29T04:35:15;10.40;22.90
5276;DHT22;2661;50.786;12.728;2023-04-29T04:37:41;10.40;23.80
5276;DHT22;2661;50.786;12.728;2023-04-29T04:40:08;10.40;23.70
5276;DHT22;2661;50.786;12.728;2023-04-29T04:42:36;10.40;22.40
5276;DHT22;2661;50.786;12.728;2023-04-29T04:45:03;10.40;23.70
5276;DHT22;2661;50.786;12.728;2023-04-29T04:47:29;10.50;23.30
5276;DHT22;2661;50.786;12.728;2023-04-29T04:49:56;10.50;23.70
5276;DHT22;2661;50.786;12.728;2023-04-29T04:52:23;10.50;24.70
5276;DHT22;2661;50.786;12.728;2023-04-29T04:54:49;10.50;24.70
5276;DHT22;2661;50.786;12.728;2023-04-29T04:57:16;10.50;25.90
5276;DHT22;2661;50.786;12.728;2023-04-29T04:59:42;10.50;25.90
5276;DHT22;2661;50.786;12.728;2023-04-29T05:02:09;10.50;27.30
5276;DHT22;2661;50.786;12.728;2023-04-29T05:04:36;10.50;27.30
5276;DHT22;2661;50.786;12.728;2023-04-29T05:07:03;10.60;26.60
5276;DHT22;2661;50.786;12.728;2023-04-29T05:09:29;10.60;26.50
5276;DHT22;2661;50.786;12.728;2023-04-29T05:11:56;10.60;27.50
5276;DHT22;2661;50.786;12.728;2023-04-29T05:14:24;10.60;27.40
5276;DHT22;2661;50.786;12.728;2023-04-29T05:16:51;10.60;26.40
5276;DHT22;2661;50.786;12.728;2023-04-29T05:19:18;10.60;25.70
5276;DHT22;2661;50.786;12.728;2023-04-29T05:21:45;10.60;26.40
5276;DHT22;2661;50.786;12.728;2023-04-29T05:24:11;10.60;26.50
5276;DHT22;2661;50.786;12.728;2023-04-29T05:26:38;10.60;27.30
5276;DHT22;2661;50.786;12.728;2023-04-29T05:29:04;10.60;27.40
5276;DHT22;2661;50.786;12.728;2023-04-29T05:31:31;10.70;27.60
5276;DHT22;2661;50.786;12.728;2023-04-29T05:33:57;10.70;27.50
5276;DHT22;2661;50.786;12.728;2023-04-29T05:36:24;10.90;27.10
5276;DHT22;2661;50.786;12.728;2023-04-29T05:38:50;11.00;24.50
5276;DHT22;2661;50.786;12.728;2023-04-29T05:41:17;11.10;20.70
5276;DHT22;2661;50.786;12.728;2023-04-29T05:43:44;11.10;14.20
5276;DHT22;2661;50.786;12.728;2023-04-29T05:46:10;11.10;4.70
5276;DHT22;2661;50.786;12.728;2023-04-29T05:48:37;11.20;1.00
5276;DHT22;2661;50.786;12.728;2023-04-29T05:51:04;11.30;1.00
5276;DHT22;2661;50.786;12.728;2023-04-29T05:53:30;11.30;1.00
5276;DHT22;2661;50.786;12.728;2023-04-29T05:55:58;11.30;1.00
5276;DHT22;2661;50.786;12.728;2023-04-29T05:58:25;11.30;1.00
5276;DHT22;2661;50.786;12.728;2023-04-29T06:00:51;11.40;1.00
5276;DHT22;2661;50.786;12.728;2023-04-29T06:03:18;11.40;1.00
5276;DHT22;2661;50.786;12.728;2023-04-29T06:05:44;11.30;1.00
5276;DHT22;2661;50.786;12.728;2023-04-29T06:08:12;11.30;1.00
5276;DHT22;2661;50.786;12.728;2023-04-29T06:10:38;11.30;1.00
5276;DHT22;2661;50.786;12.728;2023-04-29T06:13:05;11.30;1.00
5276;DHT22;2661;50.786;12.728;2023-04-29T06:15:31;11.30;1.00
5276;DHT22;2661;50.786;12.728;2023-04-29T06:17:58;11.20;1.00
5276;DHT22;2661;50.786;12.728;2023-04-29T06:20:25;11.20;1.00
5276;DHT22;2661;50.786;12.728;2023-04-29T06:22:51;11.20;1.00
5276;DHT22;2661;50.786;12.728;2023-04-29T06:25:18;11.20;1.00
5276;DHT22;2661;50.786;12.728;2023-04-29T06:27:44;11.20;1.00
5276;DHT22;2661;50.786;12.728;2023-04-29T06:30:11;11.20;1.00
5276;DHT22;2661;50.786;12.728;2023-04-29T06:32:38;11.20;1.00
5276;DHT22;2661;50.786;12.728;2023-04-29T06:35:05;11.20;1.00
5276;DHT22;2661;50.786;12.728;2023-04-29T06:37:32;11.40;1.00
5276;DHT22;2661;50.786;12.728;2023-04-29T06:40:00;11.50;1.00
5276;DHT22;2661;50.786;12.728;2023-04-29T06:42:27;11.50;1.00
5276;DHT22;2661;50.786;12.728;2023-04-29T06:44:54;11.50;1.00
5276;DHT22;2661;50.786;12.728;2023-04-29T06:47:20;11.60;1.00
5276;DHT22;2661;50.786;12.728;2023-04-29T06:49:47;11.60;1.00
5276;DHT22;2661;50.786;12.728;2023-04-29T06:52:13;11.70;1.00
5276;DHT22;2661;50.786;12.728;2023-04-29T06:54:40;11.70;1.00
5276;DHT22;2661;50.786;12.728;2023-04-29T06:57:07;11.70;1.00
5276;DHT22;2661;50.786;12.728;2023-04-29T06:59:33;11.70;1.00
5276;DHT22;2661;50.786;12.728;2023-04-29T07:02:00;11.70;1.00
5276;DHT22;2661;50.786;12.728;2023-04-29T07:04:26;11.70;1.00
5276;DHT22;2661;50.786;12.728;2023-04-29T07:06:53;11.70;1.00
5276;DHT22;2661;50.786;12.728;2023-04-29T07:09:19;11.70;1.00
5276;DHT22;2661;50.786;12.728;2023-04-29T07:11:46;11.70;1.00
5276;DHT22;2661;50.786;12.728;2023-04-29T07:14:12;11.90;1.00
5276;DHT22;2661;50.786;12.728;2023-04-29T07:16:39;12.00;1.00
5276;DHT22;2661;50.786;12.728;2023-04-29T07:19:06;12.10;1.00
5276;DHT22;2661;50.786;12.728;2023-04-29T07:21:32;12.30;99.90
5276;DHT22;2661;50.786;12.728;2023-04-29T07:23:59;12.30;99.90
5276;DHT22;2661;50.786;12.728;2023-04-29T07:26:27;12.30;99.90
5276;DHT22;2661;50.786;12.728;2023-04-29T07:28:54;12.40;99.90
5276;DHT22;2661;50.786;12.728;2023-04-29T07:31:20;12.40;99.90
5276;DHT22;2661;50.786;12.728;2023-04-29T07:33:47;12.60;1.00
5276;DHT22;2661;50.786;12.728;2023-04-29T07:36:14;12.70;99.90
5276;DHT22;2661;50.786;12.728;2023-04-29T07:38:41;12.80;99.90
5276;DHT22;2661;50.786;12.728;2023-04-29T07:41:07;12.90;99.90
5276;DHT22;2661;50.786;12.728;2023-04-29T07:43:34;13.00;1.00
5276;DHT22;2661;50.786;12.728;2023-04-29T07:46:01;13.00;1.00
5276;DHT22;2661;50.786;12.728;2023-04-29T07:48:28;12.90;1.00
5276;DHT22;2661;50.786;12.728;2023-04-29T07:50:54;12.70;1.00
5276;DHT22;2661;50.786;12.728;2023-04-29T07:53:21;12.60;99.90
5276;DHT22;2661;50.786;12.728;2023-04-29T07:55:47;12.40;1.00
5276;DHT22;2661;50.786;12.728;2023-04-29T07:58:14;12.30;99.90
5276;DHT22;2661;50.786;12.728;2023-04-29T08:00:41;12.20;99.90
5276;DHT22;2661;50.786;12.728;2023-04-29T08:03:08;12.10;99.90
5276;DHT22;2661;50.786;12.728;2023-04-29T08:05:34;12.20;1.00
5276;DHT22;2661;50.786;12.728;2023-04-29T08:08:02;12.10;1.00
5276;DHT22;2661;50.786;12.728;2023-04-29T08:10:28;12.10;23.70
5276;DHT22;2661;50.786;12.728;2023-04-29T08:12:55;12.20;99.90
5276;DHT22;2661;50.786;12.728;2023-04-29T08:15:21;12.10;27.30
5276;DHT22;2661;50.786;12.728;2023-04-29T08:17:48;12.20;1.00
5276;DHT22;2661;50.786;12.728;2023-04-29T08:20:15;12.10;1.00
5276;DHT22;2661;50.786;12.728;2023-04-29T08:22:41;12.20;1.00
5276;DHT22;2661;50.786;12.728;2023-04-29T08:25:08;12.30;1.00
5276;DHT22;2661;50.786;12.728;2023-04-29T08:27:34;12.40;99.90
5276;DHT22;2661;50.786;12.728;2023-04-29T08:30:01;12.50;99.90
5276;DHT22;2661;50.786;12.728;2023-04-29T08:32:28;12.60;1.00
5276;DHT22;2661;50.786;12.728;2023-04-29T08:34:54;12.60;1.00
5276;DHT22;2661;50.786;12.728;2023-04-29T08:37:21;12.60;1.00
5276;DHT22;2661;50.786;12.728;2023-04-29T08:39:48;12.60;1.00
5276;DHT22;2661;50.786;12.728;2023-04-29T08:42:15;12.50;99.90
5276;DHT22;2661;50.786;12.728;2023-04-29T08:44:42;12.40;99.90
5276;DHT22;2661;50.786;12.728;2023-04-29T08:47:09;12.20;1.00
5276;DHT22;2661;50.786;12.728;2023-04-29T08:49:36;12.10;1.00
5276;DHT22;2661;50.786;12.728;2023-04-29T08:52:03;12.10;28.00
5276;DHT22;2661;50.786;12.728;2023-04-29T08:54:30;12.10;2.00
5276;DHT22;2661;50.786;12.728;2023-04-29T08:56:57;12.20;99.90
5276;DHT22;2661;50.786;12.728;2023-04-29T08:59:24;12.20;99.90
5276;DHT22;2661;50.786;12.728;2023-04-29T09:01:52;12.30;99.90
5276;DHT22;2661;50.786;12.728;2023-04-29T09:04:29;12.30;1.00
5276;DHT22;2661;50.786;12.728;2023-04-29T09:06:56;12.20;1.00
5276;DHT22;2661;50.786;12.728;2023-04-29T09:09:26;12.20;1.00
5276;DHT22;2661;50.786;12.728;2023-04-29T09:11:53;12.20;99.90
5276;DHT22;2661;50.786;12.728;2023-04-29T09:14:21;12.20;99.90
5276;DHT22;2661;50.786;12.728;2023-04-29T09:16:48;12.30;99.90
5276;DHT22;2661;50.786;12.728;2023-04-29T09:19:28;12.40;1.00
5276;DHT22;2661;50.786;12.728;2023-04-29T09:21:55;12.70;1.00
5276;DHT22;2661;50.786;12.728;2023-04-29T09:24:26;12.90;69.70
5276;DHT22;2661;50.786;12.728;2023-04-29T09:26:53;13.00;1.00
5276;DHT22;2661;50.786;12.728;2023-04-29T09:29:19;13.10;1.00
5276;DHT22;2661;50.786;12.728;2023-04-29T09:31:46;13.30;1.00
5276;DHT22;2661;50.786;12.728;2023-04-29T09:34:13;13.40;1.00
5276;DHT22;2661;50.786;12.728;2023-04-29T09:36:41;13.50;99.90
5276;DHT22;2661;50.786;12.728;2023-04-29T09:39:08;13.50;99.90
5276;DHT22;2661;50.786;12.728;2023-04-29T09:41:38;13.50;99.90
5276;DHT22;2661;50.786;12.728;2023-04-29T09:44:06;13.50;99.90
5276;DHT22;2661;50.786;12.728;2023-04-29T09:46:33;13.40;99.90
5276;DHT22;2661;50.786;12.728;2023-04-29T09:49:00;13.40;99.90
5276;DHT22;2661;50.786;12.728;2023-04-29T09:51:26;13.50;99.90
5276;DHT22;2661;50.786;12.728;2023-04-29T09:53:53;13.70;99.90
5276;DHT22;2661;50.786;12.728;2023-04-29T09:56:19;13.70;99.90
5276;DHT22;2661;50.786;12.728;2023-04-29T09:58:46;13.70;99.90
5276;DHT22;2661;50.786;12.728;2023-04-29T10:01:13;13.60;99.90
5276;DHT22;2661;50.786;12.728;2023-04-29T10:03:43;13.50;99.90
5276;DHT22;2661;50.786;12.728;2023-04-29T10:06:10;13.40;99.90
5276;DHT22;2661;50.786;12.728;2023-04-29T10:08:37;13.20;99.90
5276;DHT22;2661;50.786;12.728;2023-04-29T10:11:06;13.20;99.90
5276;DHT22;2661;50.786;12.728;2023-04-29T10:13:34;13.30;99.90
5276;DHT22;2661;50.786;12.728;2023-04-29T10:16:10;13.40;99.90
5276;DHT22;2661;50.786;12.728;2023-04-29T10:18:40;13.40;99.90
5276;DHT22;2661;50.786;12.728;2023-04-29T10:21:07;13.60;99.90
5276;DHT22;2661;50.786;12.728;2023-04-29T10:23:37;13.60;99.90
5276;DHT22;2661;50.786;12.728;2023-04-29T10:26:04;13.50;99.90
5276;DHT22;2661;50.786;12.728;2023-04-29T10:28:31;13.20;99.90
5276;DHT22;2661;50.786;12.728;2023-04-29T10:31:00;12.90;99.90
5276;DHT22;2661;50.786;12.728;2023-04-29T10:33:29;12.70;99.90
5276;DHT22;2661;50.786;12.728;2023-04-29T10:35:56;12.40;99.90
5276;DHT22;2661;50.786;12.728;2023-04-29T10:40:53;12.20;99.90
5276;DHT22;2661;50.786;12.728;2023-04-29T10:43:21;12.00;99.90
5276;DHT22;2661;50.786;12.728;2023-04-29T10:45:48;11.90;1.00
5276;DHT22;2661;50.786;12.728;2023-04-29T10:48:15;11.80;1.00
5276;DHT22;2661;50.786;12.728;2023-04-29T10:53:16;11.60;1.00
5276;DHT22;2661;50.786;12.728;2023-04-29T10:55:45;11.50;99.90
5276;DHT22;2661;50.786;12.728;2023-04-29T11:00:57;11.60;99.90
5276;DHT22;2661;50.786;12.728;2023-04-29T11:06:10;11.60;99.90
5276;DHT22;2661;50.786;12.728;2023-04-29T11:08:37;11.70;22.50
5276;DHT22;2661;50.786;12.728;2023-04-29T11:11:05;11.70;1.00
5276;DHT22;2661;50.786;12.728;2023-04-29T11:13:38;11.70;13.70
5276;DHT22;2661;50.786;12.728;2023-04-29T11:18:31;11.70;1.00
5276;DHT22;2661;50.786;12.728;2023-04-29T11:23:29;11.60;13.60
5276;DHT22;2661;50.786;12.728;2023-04-29T11:25:56;11.60;1.00
5276;DHT22;2661;50.786;12.728;2023-04-29T11:28:23;11.60;1.00
5276;DHT22;2661;50.786;12.728;2023-04-29T11:30:50;11.70;1.00
5276;DHT22;2661;50.786;12.728;2023-04-29T11:33:18;11.70;1.00
5276;DHT22;2661;50.786;12.728;2023-04-29T11:35:45;11.90;1.00
5276;DHT22;2661;50.786;12.728;2023-04-29T11:38:12;12.00;1.00
5276;DHT22;2661;50.786;12.728;2023-04-29T11:40:48;12.10;1.00
5276;DHT22;2661;50.786;12.728;2023-04-29T11:43:16;12.20;99.90
5276;DHT22;2661;50.786;12.728;2023-04-29T11:45:44;12.10;99.90
5276;DHT22;2661;50.786;12.728;2023-04-29T11:48:20;12.00;99.90
5276;DHT22;2661;50.786;12.728;2023-04-29T11:50:48;12.00;99.90
5276;DHT22;2661;50.786;12.728;2023-04-29T11:53:14;12.00;99.90
5276;DHT22;2661;50.786;12.728;2023-04-29T11:55:41;12.00;99.90
5276;DHT22;2661;50.786;12.728;2023-04-29T11:58:08;12.00;99.90
5276;DHT22;2661;50.786;12.728;2023-04-29T12:00:35;11.90;99.90
5276;DHT22;2661;50.786;12.728;2023-04-29T12:03:14;11.80;99.90
5276;DHT22;2661;50.786;12.728;2023-04-29T12:05:45;11.90;1.00
5276;DHT22;2661;50.786;12.728;2023-04-29T12:08:11;11.90;1.00
5276;DHT22;2661;50.786;12.728;2023-04-29T12:10:38;11.80;99.90
5276;DHT22;2661;50.786;12.728;2023-04-29T12:13:04;11.80;1.00
5276;DHT22;2661;50.786;12.728;2023-04-29T12:15:32;11.90;99.90
5276;DHT22;2661;50.786;12.728;2023-04-29T12:17:59;11.90;99.90
5276;DHT22;2661;50.786;12.728;2023-04-29T12:20:26;11.80;99.90
5276;DHT22;2661;50.786;12.728;2023-04-29T12:22:54;11.80;99.90
5276;DHT22;2661;50.786;12.728;2023-04-29T12:25:24;11.90;99.90
5276;DHT22;2661;50.786;12.728;2023-04-29T12:27:50;11.90;99.90
5276;DHT22;2661;50.786;12.728;2023-04-29T12:30:17;12.00;99.90
5276;DHT22;2661;50.786;12.728;2023-04-29T12:32:45;12.20;99.90
5276;DHT22;2661;50.786;12.728;2023-04-29T12:35:14;12.30;99.90
5276;DHT22;2661;50.786;12.728;2023-04-29T12:37:42;12.40;99.90
5276;DHT22;2661;50.786;12.728;2023-04-29T12:40:12;12.60;99.90
5276;DHT22;2661;50.786;12.728;2023-04-29T12:42:39;12.60;99.90
5276;DHT22;2661;50.786;12.728;2023-04-29T12:45:06;12.60;99.90
5276;DHT22;2661;50.786;12.728;2023-04-29T12:47:33;12.60;99.90
5276;DHT22;2661;50.786;12.728;2023-04-29T12:50:00;12.80;99.90
5276;DHT22;2661;50.786;12.728;2023-04-29T12:52:27;12.80;99.90
5276;DHT22;2661;50.786;12.728;2023-04-29T12:54:53;12.60;99.90
5276;DHT22;2661;50.786;12.728;2023-04-29T12:57:20;12.50;99.90
5276;DHT22;2661;50.786;12.728;2023-04-29T12:59:48;12.40;99.90
5276;DHT22;2661;50.786;12.728;2023-04-29T13:02:14;12.50;99.90
5276;DHT22;2661;50.786;12.728;2023-04-29T13:04:41;12.50;99.90
5276;DHT22;2661;50.786;12.728;2023-04-29T13:07:09;12.40;99.90
5276;DHT22;2661;50.786;12.728;2023-04-29T13:09:36;12.30;99.90
5276;DHT22;2661;50.786;12.728;2023-04-29T13:12:03;12.40;99.90
5276;DHT22;2661;50.786;12.728;2023-04-29T13:14:30;12.40;99.90
5276;DHT22;2661;50.786;12.728;2023-04-29T13:16:57;12.40;99.90
5276;DHT22;2661;50.786;12.728;2023-04-29T13:19:24;12.40;99.90
5276;DHT22;2661;50.786;12.728;2023-04-29T13:22:11;12.40;99.90
5276;DHT22;2661;50.786;12.728;2023-04-29T13:24:38;12.50;99.90
5276;DHT22;2661;50.786;12.728;2023-04-29T13:27:05;12.60;99.90
5276;DHT22;2661;50.786;12.728;2023-04-29T13:29:31;12.50;99.90
5276;DHT22;2661;50.786;12.728;2023-04-29T13:31:58;12.50;99.90
5276;DHT22;2661;50.786;12.728;2023-04-29T13:34:24;12.50;99.90
5276;DHT22;2661;50.786;12.728;2023-04-29T13:36:51;12.40;99.90
5276;DHT22;2661;50.786;12.728;2023-04-29T13:39:17;12.30;99.90
5276;DHT22;2661;50.786;12.728;2023-04-29T13:41:45;12.30;99.90
5276;DHT22;2661;50.786;12.728;2023-04-29T13:44:12;12.20;99.90
5276;DHT22;2661;50.786;12.728;2023-04-29T13:46:42;12.10;99.90
5276;DHT22;2661;50.786;12.728;2023-04-29T13:49:10;12.00;99.90
5276;DHT22;2661;50.786;12.728;2023-04-29T13:51:57;11.80;99.90
5276;DHT22;2661;50.786;12.728;2023-04-29T13:54:26;11.80;99.90
5276;DHT22;2661;50.786;12.728;2023-04-29T13:57:13;11.80;99.90
5276;DHT22;2661;50.786;12.728;2023-04-29T13:59:59;11.90;99.90
5276;DHT22;2661;50.786;12.728;2023-04-29T14:02:46;12.00;99.90
5276;DHT22;2661;50.786;12.728;2023-04-29T14:05:23;11.90;99.90
5276;DHT22;2661;50.786;12.728;2023-04-29T14:07:51;11.90;99.90
5276;DHT22;2661;50.786;12.728;2023-04-29T14:10:17;12.00;99.90
5276;DHT22;2661;50.786;12.728;2023-04-29T14:12:44;12.10;99.90
5276;DHT22;2661;50.786;12.728;2023-04-29T14:15:10;12.00;99.90
5276;DHT22;2661;50.786;12.728;2023-04-29T14:17:37;12.10;99.90
5276;DHT22;2661;50.786;12.728;2023-04-29T14:20:04;12.10;99.90
5276;DHT22;2661;50.786;12.728;2023-04-29T14:22:31;12.10;99.90
5276;DHT22;2661;50.786;12.728;2023-04-29T14:25:21;12.10;99.90
5276;DHT22;2661;50.786;12.728;2023-04-29T14:27:55;12.20;99.90
5276;DHT22;2661;50.786;12.728;2023-04-29T14:30:22;12.20;99.90
5276;DHT22;2661;50.786;12.728;2023-04-29T14:32:48;12.10;99.90
5276;DHT22;2661;50.786;12.728;2023-04-29T14:35:15;12.10;99.90
5276;DHT22;2661;50.786;12.728;2023-04-29T14:37:42;12.00;99.90
5276;DHT22;2661;50.786;12.728;2023-04-29T14:40:09;12.00;99.90
5276;DHT22;2661;50.786;12.728;2023-04-29T14:42:36;12.00;99.90
5276;DHT22;2661;50.786;12.728;2023-04-29T14:45:03;12.10;99.90
5276;DHT22;2661;50.786;12.728;2023-04-29T14:47:30;12.20;99.90
5276;DHT22;2661;50.786;12.728;2023-04-29T14:49:56;12.40;99.90
5276;DHT22;2661;50.786;12.728;2023-04-29T14:52:23;12.60;99.90
5276;DHT22;2661;50.786;12.728;2023-04-29T14:54:50;12.60;99.90
5276;DHT22;2661;50.786;12.728;2023-04-29T14:57:17;12.50;99.90
5276;DHT22;2661;50.786;12.728;2023-04-29T14:59:43;12.60;99.90
5276;DHT22;2661;50.786;12.728;2023-04-29T15:02:10;12.70;99.90
5276;DHT22;2661;50.786;12.728;2023-04-29T15:04:37;12.80;99.90
5276;DHT22;2661;50.786;12.728;2023-04-29T15:07:05;12.80;99.90
5276;DHT22;2661;50.786;12.728;2023-04-29T15:09:31;12.70;99.90
5276;DHT22;2661;50.786;12.728;2023-04-29T15:11:58;12.70;99.90
5276;DHT22;2661;50.786;12.728;2023-04-29T15:14:25;12.60;99.90
5276;DHT22;2661;50.786;12.728;2023-04-29T15:16:51;12.60;99.90
5276;DHT22;2661;50.786;12.728;2023-04-29T15:19:18;12.60;99.90
5276;DHT22;2661;50.786;12.728;2023-04-29T15:21:45;12.60;99.90
5276;DHT22;2661;50.786;12.728;2023-04-29T15:24:12;12.60;99.90
5276;DHT22;2661;50.786;12.728;2023-04-29T15:26:39;12.40;99.90
5276;DHT22;2661;50.786;12.728;2023-04-29T15:29:06;12.20;99.90
5276;DHT22;2661;50.786;12.728;2023-04-29T15:31:32;12.10;99.90
5276;DHT22;2661;50.786;12.728;2023-04-29T15:33:59;12.00;99.90
5276;DHT22;2661;50.786;12.728;2023-04-29T15:36:27;11.90;99.90
5276;DHT22;2661;50.786;12.728;2023-04-29T15:38:54;11.90;99.90
5276;DHT22;2661;50.786;12.728;2023-04-29T15:41:21;11.80;99.90
5276;DHT22;2661;50.786;12.728;2023-04-29T15:43:48;11.80;99.90
5276;DHT22;2661;50.786;12.728;2023-04-29T15:46:14;11.80;99.90
5276;DHT22;2661;50.786;12.728;2023-04-29T15:48:41;11.80;99.90
5276;DHT22;2661;50.786;12.728;2023-04-29T15:51:08;11.80;99.90
5276;DHT22;2661;50.786;12.728;2023-04-29T15:53:35;11.80;99.90
5276;DHT22;2661;50.786;12.728;2023-04-29T15:56:02;11.70;99.90
5276;DHT22;2661;50.786;12.728;2023-04-29T15:58:28;11.60;99.90
5276;DHT22;2661;50.786;12.728;2023-04-29T16:00:55;11.50;99.90
5276;DHT22;2661;50.786;12.728;2023-04-29T16:03:21;11.50;99.90
5276;DHT22;2661;50.786;12.728;2023-04-29T16:05:49;11.50;99.90
5276;DHT22;2661;50.786;12.728;2023-04-29T16:08:16;11.50;99.90
5276;DHT22;2661;50.786;12.728;2023-04-29T16:10:42;11.50;99.90
5276;DHT22;2661;50.786;12.728;2023-04-29T16:13:11;11.50;99.90
5276;DHT22;2661;50.786;12.728;2023-04-29T16:15:37;11.50;99.90
5276;DHT22;2661;50.786;12.728;2023-04-29T16:18:05;11.40;99.90
5276;DHT22;2661;50.786;12.728;2023-04-29T16:20:32;11.40;99.90
5276;DHT22;2661;50.786;12.728;2023-04-29T16:22:58;11.40;99.90